61081 ZSJX-ZSJX
Flight info
| Callsign | 61081 |
|---|---|
| Flight time | N/A |
| Altitude | 3000 |
| Route | AND HSN XSY |
| Aircraft | SU27/M-SDGT/SB1 |
Departure
| Time | 2026-04-14 09:45 |
|---|---|
| Airport | Jiaxing Nanhu Airport (ZSJX) |
Arrival
| Time | N/A |
|---|---|
| Airport | Jiaxing Nanhu Airport (ZSJX) |
| Time | Latitude | Longitude | Altitude | Speed | Heading |
|---|---|---|---|---|---|
| 2026-04-14 09:34 | 30.69982 | 120.67842 | 19 ft | 0 kts | 303° |
| 2026-04-14 09:42 | 30.69984 | 120.67839 | 22 ft | 3 kts | 304° |
| 2026-04-14 09:43 | 30.69999 | 120.67815 | 21 ft | 3 kts | 307° |
| 2026-04-14 09:43 | 30.70005 | 120.67806 | 19 ft | 1 kts | 307° |
| 2026-04-14 09:43 | 30.70021 | 120.67732 | 19 ft | 16 kts | 246° |
| 2026-04-14 09:43 | 30.69972 | 120.67672 | 21 ft | 6 kts | 218° |
| 2026-04-14 09:44 | 30.69961 | 120.67663 | 21 ft | 0 kts | 215° |
| 2026-04-14 09:44 | 30.69934 | 120.67639 | 19 ft | 10 kts | 219° |
| 2026-04-14 09:44 | 30.69939 | 120.67562 | 19 ft | 12 kts | 307° |
| 2026-04-14 09:44 | 30.69994 | 120.67479 | 19 ft | 14 kts | 306° |
| 2026-04-14 09:45 | 30.70060 | 120.67474 | 21 ft | 10 kts | 42° |
| 2026-04-14 09:45 | 30.70243 | 120.67658 | 23 ft | 117 kts | 41° |
| 2026-04-14 09:45 | 30.71436 | 120.68892 | 264 ft | 298 kts | 41° |
| 2026-04-14 09:45 | 30.73002 | 120.70694 | 1200 ft | 324 kts | 58° |
| 2026-04-14 09:46 | 30.73378 | 120.73332 | 2064 ft | 363 kts | 100° |
| 2026-04-14 09:46 | 30.71940 | 120.75904 | 2064 ft | 409 kts | 145° |
| 2026-04-14 09:46 | 30.69174 | 120.76810 | 2171 ft | 403 kts | 187° |
| 2026-04-14 09:46 | 30.66695 | 120.75589 | 1683 ft | 394 kts | 216° |
| 2026-04-14 09:47 | 30.64478 | 120.73743 | 1634 ft | 390 kts | 217° |
| 2026-04-14 09:47 | 30.62235 | 120.72000 | 1634 ft | 385 kts | 207° |
| 2026-04-14 09:47 | 30.59687 | 120.71228 | 1836 ft | 377 kts | 183° |
| 2026-04-14 09:47 | 30.57151 | 120.71704 | 1936 ft | 366 kts | 159° |
| 2026-04-14 09:48 | 30.55051 | 120.73276 | 1981 ft | 357 kts | 135° |
| 2026-04-14 09:48 | 30.53461 | 120.75456 | 2016 ft | 351 kts | 127° |
| 2026-04-14 09:48 | 30.51979 | 120.77684 | 2051 ft | 346 kts | 127° |
| 2026-04-14 09:48 | 30.50523 | 120.79884 | 2165 ft | 341 kts | 127° |
| 2026-04-14 09:49 | 30.49094 | 120.82043 | 2323 ft | 334 kts | 127° |
| 2026-04-14 09:49 | 30.47688 | 120.84167 | 2485 ft | 329 kts | 127° |
| 2026-04-14 09:49 | 30.46306 | 120.86255 | 2648 ft | 324 kts | 127° |
| 2026-04-14 09:49 | 30.44944 | 120.88315 | 2822 ft | 320 kts | 127° |
| 2026-04-14 09:50 | 30.43591 | 120.90364 | 2908 ft | 320 kts | 127° |
| 2026-04-14 09:50 | 30.42248 | 120.92398 | 2873 ft | 325 kts | 127° |
| 2026-04-14 09:50 | 30.40863 | 120.94497 | 2765 ft | 330 kts | 127° |
| 2026-04-14 09:50 | 30.39456 | 120.96626 | 2676 ft | 334 kts | 127° |
| 2026-04-14 09:51 | 30.38033 | 120.98779 | 2583 ft | 337 kts | 127° |
| 2026-04-14 09:51 | 30.36849 | 121.01113 | 2483 ft | 337 kts | 115° |
| 2026-04-14 09:51 | 30.35711 | 121.03500 | 2394 ft | 340 kts | 122° |
| 2026-04-14 09:51 | 30.34424 | 121.05807 | 2296 ft | 341 kts | 122° |
| 2026-04-14 09:52 | 30.33114 | 121.08112 | 2195 ft | 343 kts | 123° |
| 2026-04-14 09:52 | 30.31805 | 121.10426 | 2117 ft | 343 kts | 122° |
| 2026-04-14 09:52 | 30.30797 | 121.12887 | 2136 ft | 338 kts | 105° |
| 2026-04-14 09:52 | 30.30197 | 121.15513 | 2110 ft | 338 kts | 104° |
| 2026-04-14 09:53 | 30.29576 | 121.18105 | 2054 ft | 339 kts | 108° |
| 2026-04-14 09:53 | 30.28623 | 121.20587 | 2069 ft | 337 kts | 116° |
| 2026-04-14 09:53 | 30.27581 | 121.23021 | 2015 ft | 339 kts | 116° |
| 2026-04-14 09:53 | 30.26529 | 121.25468 | 1953 ft | 340 kts | 116° |
| 2026-04-14 09:54 | 30.25474 | 121.27924 | 1880 ft | 341 kts | 116° |
| 2026-04-14 09:54 | 30.24468 | 121.30406 | 1836 ft | 340 kts | 110° |
| 2026-04-14 09:54 | 30.23713 | 121.32987 | 1907 ft | 337 kts | 107° |
| 2026-04-14 09:54 | 30.23027 | 121.35564 | 1937 ft | 335 kts | 101° |
| 2026-04-14 09:55 | 30.22520 | 121.38192 | 1924 ft | 336 kts | 104° |
| 2026-04-14 09:55 | 30.21857 | 121.40784 | 1916 ft | 337 kts | 107° |
| 2026-04-14 09:55 | 30.21131 | 121.43367 | 1898 ft | 338 kts | 108° |
| 2026-04-14 09:55 | 30.20382 | 121.45938 | 1879 ft | 338 kts | 108° |
| 2026-04-14 09:56 | 30.19620 | 121.48511 | 1865 ft | 338 kts | 108° |
| 2026-04-14 09:56 | 30.18853 | 121.51084 | 1838 ft | 339 kts | 108° |
| 2026-04-14 09:56 | 30.18094 | 121.53629 | 1816 ft | 339 kts | 108° |
| 2026-04-14 09:56 | 30.17327 | 121.56208 | 1804 ft | 339 kts | 108° |
| 2026-04-14 09:57 | 30.16558 | 121.58791 | 1794 ft | 340 kts | 108° |
| 2026-04-14 09:57 | 30.15786 | 121.61374 | 1785 ft | 340 kts | 108° |
| 2026-04-14 09:57 | 30.15016 | 121.63956 | 1764 ft | 340 kts | 108° |
| 2026-04-14 09:57 | 30.14244 | 121.66541 | 1743 ft | 340 kts | 108° |
| 2026-04-14 09:58 | 30.13732 | 121.68254 | 1732 ft | 340 kts | 108° |
| 2026-04-14 09:58 | 30.12959 | 121.70841 | 1709 ft | 341 kts | 108° |
| 2026-04-14 09:58 | 30.12185 | 121.73428 | 1695 ft | 341 kts | 108° |
| 2026-04-14 09:58 | 30.11414 | 121.76017 | 1682 ft | 341 kts | 108° |
| 2026-04-14 09:59 | 30.10641 | 121.78613 | 1664 ft | 341 kts | 108° |
| 2026-04-14 09:59 | 30.09871 | 121.81205 | 1648 ft | 341 kts | 108° |
| 2026-04-14 09:59 | 30.09098 | 121.83802 | 1625 ft | 342 kts | 108° |
| 2026-04-14 09:59 | 30.08326 | 121.86399 | 1604 ft | 342 kts | 108° |
| 2026-04-14 10:00 | 30.07552 | 121.89001 | 1594 ft | 342 kts | 108° |
| 2026-04-14 10:00 | 30.06778 | 121.91606 | 1579 ft | 343 kts | 108° |
| 2026-04-14 10:00 | 30.06005 | 121.94204 | 1553 ft | 343 kts | 108° |
| 2026-04-14 10:00 | 30.05230 | 121.96804 | 1537 ft | 343 kts | 108° |
| 2026-04-14 10:01 | 30.04464 | 121.99375 | 1519 ft | 343 kts | 108° |
| 2026-04-14 10:01 | 30.03771 | 122.01695 | 1512 ft | 343 kts | 108° |
| 2026-04-14 10:02 | 30.03372 | 122.03033 | 1511 ft | 343 kts | 108° |
| 2026-04-14 10:02 | 30.03102 | 122.03937 | 1505 ft | 343 kts | 108° |
| 2026-04-14 10:02 | 30.02830 | 122.04851 | 1488 ft | 343 kts | 108° |
| 2026-04-14 10:02 | 30.02062 | 122.07419 | 1481 ft | 343 kts | 108° |
| 2026-04-14 10:03 | 30.01284 | 122.10024 | 1458 ft | 343 kts | 108° |
| 2026-04-14 10:03 | 30.00506 | 122.12627 | 1447 ft | 343 kts | 108° |
| 2026-04-14 10:03 | 29.99731 | 122.15232 | 1428 ft | 343 kts | 108° |
| 2026-04-14 10:03 | 29.98957 | 122.17839 | 1401 ft | 343 kts | 108° |
| 2026-04-14 10:04 | 29.98183 | 122.20446 | 1377 ft | 343 kts | 108° |
| 2026-04-14 10:04 | 29.97409 | 122.23048 | 1358 ft | 343 kts | 108° |
| 2026-04-14 10:04 | 29.96635 | 122.25646 | 1338 ft | 342 kts | 108° |
| 2026-04-14 10:04 | 29.95861 | 122.28245 | 1330 ft | 342 kts | 108° |
| 2026-04-14 10:05 | 29.95086 | 122.30843 | 1321 ft | 343 kts | 108° |
| 2026-04-14 10:05 | 29.94951 | 122.33450 | 1352 ft | 322 kts | 58° |
| 2026-04-14 10:05 | 29.96767 | 122.34444 | 1300 ft | 300 kts | 353° |
| 2026-04-14 10:05 | 29.98795 | 122.33806 | 1145 ft | 306 kts | 344° |
| 2026-04-14 10:06 | 30.00864 | 122.33130 | 1047 ft | 312 kts | 344° |
| 2026-04-14 10:06 | 30.02961 | 122.32444 | 1091 ft | 310 kts | 344° |
| 2026-04-14 10:06 | 30.05001 | 122.31779 | 1462 ft | 301 kts | 343° |
| 2026-04-14 10:06 | 30.06962 | 122.31181 | 1707 ft | 284 kts | 351° |
| 2026-04-14 10:07 | 30.08897 | 122.30960 | 1924 ft | 276 kts | 354° |
| 2026-04-14 10:07 | 30.10791 | 122.30752 | 2093 ft | 273 kts | 353° |
| 2026-04-14 10:07 | 30.12688 | 122.30543 | 2094 ft | 276 kts | 353° |
| 2026-04-14 10:07 | 30.14608 | 122.30330 | 2068 ft | 279 kts | 353° |
| 2026-04-14 10:08 | 30.16549 | 122.30106 | 2033 ft | 281 kts | 353° |
| 2026-04-14 10:08 | 30.18508 | 122.29878 | 2008 ft | 283 kts | 353° |
| 2026-04-14 10:08 | 30.20459 | 122.29650 | 2078 ft | 282 kts | 353° |
| 2026-04-14 10:08 | 30.22389 | 122.29743 | 2052 ft | 283 kts | 22° |
| 2026-04-14 10:09 | 30.23654 | 122.31454 | 1683 ft | 297 kts | 76° |
| 2026-04-14 10:09 | 30.23436 | 122.33784 | 1463 ft | 304 kts | 116° |
| 2026-04-14 10:09 | 30.22378 | 122.35941 | 1276 ft | 311 kts | 120° |
| 2026-04-14 10:09 | 30.20963 | 122.37556 | 1273 ft | 290 kts | 206° |
| 2026-04-14 10:10 | 30.20450 | 122.35635 | 1391 ft | 258 kts | 274° |
| 2026-04-14 10:10 | 30.20592 | 122.33670 | 2100 ft | 234 kts | 279° |
| 2026-04-14 10:10 | 30.20900 | 122.31901 | 2670 ft | 215 kts | 288° |
| 2026-04-14 10:10 | 30.21999 | 122.30830 | 1477 ft | 242 kts | 337° |
| 2026-04-14 10:11 | 30.23562 | 122.29604 | 3909 ft | 305 kts | 287° |
| 2026-04-14 10:11 | 30.22361 | 122.27249 | 3909 ft | 434 kts | 187° |
| 2026-04-14 10:11 | 30.19582 | 122.27544 | 3659 ft | 386 kts | 142° |
| 2026-04-14 10:11 | 30.17977 | 122.29787 | 3889 ft | 345 kts | 121° |
| 2026-04-14 10:12 | 30.16728 | 122.32054 | 4189 ft | 326 kts | 122° |
| 2026-04-14 10:12 | 30.15584 | 122.34285 | 4422 ft | 320 kts | 113° |
| 2026-04-14 10:12 | 30.16252 | 122.36213 | 4749 ft | 268 kts | 4° |
| 2026-04-14 10:12 | 30.18097 | 122.36122 | 4274 ft | 275 kts | 353° |
| 2026-04-14 10:13 | 30.20061 | 122.35935 | 3851 ft | 284 kts | 353° |
| 2026-04-14 10:13 | 30.22009 | 122.35725 | 3860 ft | 279 kts | 352° |
| 2026-04-14 10:13 | 30.23936 | 122.35514 | 3789 ft | 277 kts | 353° |
| 2026-04-14 10:13 | 30.25856 | 122.35302 | 3646 ft | 278 kts | 353° |
| 2026-04-14 10:14 | 30.27810 | 122.35064 | 3245 ft | 286 kts | 338° |
| 2026-04-14 10:14 | 30.28566 | 122.33121 | 2481 ft | 297 kts | 274° |
| 2026-04-14 10:14 | 30.28513 | 122.30640 | 1648 ft | 319 kts | 266° |
| 2026-04-14 10:14 | 30.28350 | 122.28073 | 1264 ft | 321 kts | 266° |
| 2026-04-14 10:15 | 30.28186 | 122.25488 | 928 ft | 323 kts | 266° |
| 2026-04-14 10:15 | 30.28825 | 122.23304 | 1693 ft | 270 kts | 328° |
| 2026-04-14 10:15 | 30.30422 | 122.22789 | 3351 ft | 231 kts | 345° |
| 2026-04-14 10:15 | 30.31878 | 122.22249 | 3703 ft | 214 kts | 339° |
| 2026-04-14 10:16 | 30.33368 | 122.22028 | 3473 ft | 225 kts | 4° |
| 2026-04-14 10:16 | 30.34954 | 122.22248 | 3155 ft | 234 kts | 5° |
| 2026-04-14 10:16 | 30.36587 | 122.22477 | 3004 ft | 234 kts | 9° |
| 2026-04-14 10:16 | 30.38045 | 122.23198 | 3127 ft | 226 kts | 29° |
| 2026-04-14 10:17 | 30.39391 | 122.24158 | 3021 ft | 228 kts | 30° |
| 2026-04-14 10:17 | 30.40786 | 122.25192 | 2563 ft | 244 kts | 33° |
| 2026-04-14 10:17 | 30.41823 | 122.26803 | 2149 ft | 283 kts | 76° |
| 2026-04-14 10:17 | 30.42100 | 122.29318 | 1953 ft | 350 kts | 100° |
| 2026-04-14 10:18 | 30.37498 | 122.31317 | 2185 ft | 424 kts | 173° |
| 2026-04-14 10:18 | 30.34449 | 122.31742 | 2306 ft | 457 kts | 173° |
| 2026-04-14 10:18 | 30.31204 | 122.32190 | 2379 ft | 479 kts | 174° |
| 2026-04-14 10:19 | 30.28057 | 122.32065 | 2793 ft | 407 kts | 221° |
| 2026-04-14 10:19 | 30.27123 | 122.29541 | 4447 ft | 331 kts | 254° |
| 2026-04-14 10:19 | 30.26917 | 122.27082 | 5317 ft | 308 kts | 306° |
| 2026-04-14 10:19 | 30.29274 | 122.25906 | 4198 ft | 505 kts | 355° |
| 2026-04-14 10:20 | 30.33434 | 122.25908 | 4046 ft | 615 kts | 2° |
| 2026-04-14 10:20 | 30.37370 | 122.26214 | 4886 ft | 523 kts | 2° |
| 2026-04-14 10:20 | 30.40801 | 122.26513 | 5465 ft | 471 kts | 2° |
| 2026-04-14 10:20 | 30.43952 | 122.26801 | 5811 ft | 442 kts | 2° |
| 2026-04-14 10:21 | 30.46963 | 122.27083 | 5395 ft | 431 kts | 2° |
| 2026-04-14 10:21 | 30.49936 | 122.27374 | 4227 ft | 424 kts | 3° |
| 2026-04-14 10:21 | 30.52846 | 122.27658 | 3205 ft | 415 kts | 6° |
| 2026-04-14 10:21 | 30.54704 | 122.29869 | 2559 ft | 393 kts | 63° |
| 2026-04-14 10:22 | 30.55803 | 122.32709 | 2215 ft | 380 kts | 65° |
| 2026-04-14 10:22 | 30.56860 | 122.35495 | 1757 ft | 374 kts | 65° |
| 2026-04-14 10:22 | 30.57889 | 122.38212 | 1245 ft | 370 kts | 65° |
| 2026-04-14 10:22 | 30.58923 | 122.40942 | 837 ft | 363 kts | 65° |
| 2026-04-14 10:23 | 30.59902 | 122.43536 | 1183 ft | 340 kts | 65° |
| 2026-04-14 10:23 | 30.60878 | 122.45991 | 1312 ft | 328 kts | 60° |
| 2026-04-14 10:23 | 30.62158 | 122.47948 | 2186 ft | 272 kts | 40° |
| 2026-04-14 10:23 | 30.63541 | 122.48903 | 3916 ft | 184 kts | 337° |
| 2026-04-14 10:24 | 30.64406 | 122.48368 | 4718 ft | 144 kts | 311° |
| 2026-04-14 10:24 | 30.65160 | 122.47009 | 4197 ft | 237 kts | 287° |
| 2026-04-14 10:24 | 30.65227 | 122.44985 | 4409 ft | 267 kts | 259° |
| 2026-04-14 10:24 | 30.64407 | 122.42972 | 4798 ft | 289 kts | 230° |
| 2026-04-14 10:25 | 30.62569 | 122.41859 | 4908 ft | 322 kts | 189° |
| 2026-04-14 10:25 | 30.60263 | 122.42353 | 4683 ft | 361 kts | 153° |
| 2026-04-14 10:25 | 30.58331 | 122.44390 | 4249 ft | 396 kts | 123° |
| 2026-04-14 10:25 | 30.57343 | 122.47457 | 3792 ft | 420 kts | 97° |
| 2026-04-14 10:26 | 30.57886 | 122.50651 | 3635 ft | 409 kts | 39° |
| 2026-04-14 10:26 | 30.60451 | 122.52056 | 2976 ft | 429 kts | 15° |
| 2026-04-14 10:26 | 30.62450 | 122.54021 | 3695 ft | 390 kts | 109° |
| 2026-04-14 10:26 | 30.59907 | 122.54575 | 3434 ft | 454 kts | 191° |
| 2026-04-14 10:27 | 30.56635 | 122.53856 | 3213 ft | 498 kts | 191° |
| 2026-04-14 10:27 | 30.52480 | 122.52924 | 2763 ft | 707 kts | 191° |
| 2026-04-14 10:27 | 30.47440 | 122.51766 | 3081 ft | 780 kts | 192° |
| 2026-04-14 10:27 | 30.42031 | 122.50516 | 3164 ft | 781 kts | 192° |
| 2026-04-14 10:28 | 30.37398 | 122.49457 | 5339 ft | 590 kts | 192° |
| 2026-04-14 10:28 | 30.33716 | 122.48695 | 6869 ft | 488 kts | 192° |
| 2026-04-14 10:28 | 30.30606 | 122.48088 | 8203 ft | 424 kts | 192° |
| 2026-04-14 10:28 | 30.27792 | 122.47565 | 8228 ft | 420 kts | 191° |
| 2026-04-14 10:29 | 30.24507 | 122.47194 | 7068 ft | 524 kts | 186° |
| 2026-04-14 10:29 | 30.20603 | 122.46851 | 6418 ft | 611 kts | 187° |
| 2026-04-14 10:29 | 30.15745 | 122.46223 | 5827 ft | 761 kts | 188° |
| 2026-04-14 10:29 | 30.10712 | 122.45529 | 4915 ft | 708 kts | 188° |
| 2026-04-14 10:30 | 30.05916 | 122.44869 | 3833 ft | 683 kts | 187° |
| 2026-04-14 10:30 | 30.01353 | 122.44624 | 2904 ft | 590 kts | 180° |
| 2026-04-14 10:30 | 29.97683 | 122.44661 | 2999 ft | 485 kts | 179° |
| 2026-04-14 10:30 | 29.95241 | 122.44871 | 2778 ft | 304 kts | 174° |
| 2026-04-14 10:31 | 29.93774 | 122.46349 | 3607 ft | 306 kts | 85° |
| 2026-04-14 10:31 | 29.95295 | 122.47670 | 3642 ft | 316 kts | 340° |
| 2026-04-14 10:31 | 29.95802 | 122.45763 | 3462 ft | 331 kts | 205° |
| 2026-04-14 10:31 | 29.94498 | 122.47213 | 3143 ft | 349 kts | 62° |
| 2026-04-14 10:32 | 29.96281 | 122.47268 | 3077 ft | 323 kts | 274° |
| 2026-04-14 10:32 | 29.94640 | 122.46341 | 3127 ft | 329 kts | 172° |
| 2026-04-14 10:32 | 29.92252 | 122.46806 | 2680 ft | 367 kts | 171° |
| 2026-04-14 10:32 | 29.89613 | 122.47328 | 2168 ft | 397 kts | 171° |
| 2026-04-14 10:33 | 29.86830 | 122.47890 | 1754 ft | 416 kts | 170° |
| 2026-04-14 10:33 | 29.83906 | 122.48481 | 1121 ft | 435 kts | 170° |
| 2026-04-14 10:33 | 29.80982 | 122.49069 | 1688 ft | 419 kts | 170° |
| 2026-04-14 10:33 | 29.78138 | 122.49636 | 2199 ft | 410 kts | 171° |
| 2026-04-14 10:34 | 29.74959 | 122.46408 | 3284 ft | 371 kts | 263° |
| 2026-04-14 10:34 | 29.74902 | 122.43314 | 2553 ft | 401 kts | 275° |
| 2026-04-14 10:34 | 29.75499 | 122.40104 | 1834 ft | 418 kts | 292° |
| 2026-04-14 10:35 | 29.76872 | 122.37198 | 1645 ft | 399 kts | 310° |
| 2026-04-14 10:35 | 29.78689 | 122.35907 | 1773 ft | 221 kts | 11° |
| 2026-04-14 10:35 | 29.80412 | 122.36498 | 1390 ft | 295 kts | 17° |
| 2026-04-14 10:35 | 29.82798 | 122.37353 | 1317 ft | 441 kts | 16° |
| 2026-04-14 10:36 | 29.85719 | 122.37752 | 1558 ft | 304 kts | 345° |
| 2026-04-14 10:36 | 29.87158 | 122.37253 | 1091 ft | 166 kts | 349° |
| 2026-04-14 10:36 | 29.88291 | 122.37015 | 781 ft | 172 kts | 351° |
| 2026-04-14 10:36 | 29.89460 | 122.36846 | 548 ft | 174 kts | 355° |
| 2026-04-14 10:37 | 29.90964 | 122.36702 | 605 ft | 250 kts | 354° |
| 2026-04-14 10:37 | 29.92708 | 122.36580 | 570 ft | 216 kts | 358° |
| 2026-04-14 10:37 | 29.94021 | 122.36535 | 499 ft | 202 kts | 356° |
| 2026-04-14 10:37 | 29.95615 | 122.36358 | 737 ft | 252 kts | 344° |
| 2026-04-14 10:38 | 29.97232 | 122.35377 | 856 ft | 271 kts | 329° |
| 2026-04-14 10:38 | 29.98825 | 122.34271 | 1070 ft | 270 kts | 329° |
| 2026-04-14 10:38 | 30.00465 | 122.33132 | 1348 ft | 278 kts | 329° |
| 2026-04-14 10:38 | 30.02123 | 122.31979 | 1599 ft | 279 kts | 329° |
| 2026-04-14 10:39 | 30.03784 | 122.30820 | 1845 ft | 279 kts | 329° |
| 2026-04-14 10:39 | 30.05444 | 122.29659 | 2077 ft | 278 kts | 329° |
| 2026-04-14 10:39 | 30.07100 | 122.28500 | 2322 ft | 278 kts | 329° |
| 2026-04-14 10:39 | 30.08754 | 122.27344 | 2568 ft | 278 kts | 328° |
| 2026-04-14 10:40 | 30.10407 | 122.26188 | 2820 ft | 277 kts | 328° |
| 2026-04-14 10:40 | 30.12042 | 122.25047 | 3064 ft | 278 kts | 328° |
| 2026-04-14 10:40 | 30.13631 | 122.23940 | 3263 ft | 208 kts | 328° |
| 2026-04-14 10:40 | 30.14606 | 122.23269 | 2650 ft | 136 kts | 327° |
| 2026-04-14 10:41 | 30.17633 | 122.21013 | 2230 ft | 0 kts | 327° |
| 2026-04-14 10:41 | 30.20645 | 122.19061 | 2239 ft | 0 kts | 327° |
| 2026-04-14 10:41 | 30.25411 | 122.15493 | 9232 ft | 14744 kts | 327° |
| 2026-04-14 10:41 | 30.82975 | 121.72254 | 72215 ft | 127 kts | 318° |